sensor_id;sensor_type;location;lat;lon;timestamp;P1;durP1;ratioP1;P2;durP2;ratioP2
12042;SDS011;6082;49.306;12.862;2023-03-08T00:00:18;4.07;;;2.13;;
12042;SDS011;6082;49.306;12.862;2023-03-08T00:02:44;2.93;;;1.87;;
12042;SDS011;6082;49.306;12.862;2023-03-08T00:05:11;3.17;;;1.83;;
12042;SDS011;6082;49.306;12.862;2023-03-08T00:07:37;4.30;;;2.30;;
12042;SDS011;6082;49.306;12.862;2023-03-08T00:10:03;3.30;;;2.00;;
12042;SDS011;6082;49.306;12.862;2023-03-08T00:12:29;2.43;;;1.70;;
12042;SDS011;6082;49.306;12.862;2023-03-08T00:14:56;5.10;;;1.53;;
12042;SDS011;6082;49.306;12.862;2023-03-08T00:17:22;3.23;;;1.70;;
12042;SDS011;6082;49.306;12.862;2023-03-08T00:19:49;2.13;;;1.63;;
12042;SDS011;6082;49.306;12.862;2023-03-08T00:22:16;3.60;;;2.00;;
12042;SDS011;6082;49.306;12.862;2023-03-08T00:24:42;3.53;;;2.23;;
12042;SDS011;6082;49.306;12.862;2023-03-08T00:27:08;3.63;;;1.87;;
12042;SDS011;6082;49.306;12.862;2023-03-08T00:29:34;4.03;;;2.13;;
12042;SDS011;6082;49.306;12.862;2023-03-08T00:32:00;4.30;;;2.07;;
12042;SDS011;6082;49.306;12.862;2023-03-08T00:34:26;2.83;;;1.93;;
12042;SDS011;6082;49.306;12.862;2023-03-08T00:36:52;3.43;;;2.07;;
12042;SDS011;6082;49.306;12.862;2023-03-08T00:39:18;4.30;;;1.93;;
12042;SDS011;6082;49.306;12.862;2023-03-08T00:41:44;5.60;;;1.93;;
12042;SDS011;6082;49.306;12.862;2023-03-08T00:44:10;3.00;;;2.03;;
12042;SDS011;6082;49.306;12.862;2023-03-08T00:46:36;3.27;;;2.07;;
12042;SDS011;6082;49.306;12.862;2023-03-08T00:49:02;4.13;;;1.93;;
12042;SDS011;6082;49.306;12.862;2023-03-08T00:51:28;3.83;;;2.43;;
12042;SDS011;6082;49.306;12.862;2023-03-08T00:53:55;4.13;;;2.07;;
12042;SDS011;6082;49.306;12.862;2023-03-08T00:56:21;4.77;;;1.83;;
12042;SDS011;6082;49.306;12.862;2023-03-08T00:58:47;4.60;;;2.00;;
12042;SDS011;6082;49.306;12.862;2023-03-08T01:01:14;3.33;;;2.40;;
12042;SDS011;6082;49.306;12.862;2023-03-08T01:03:41;5.53;;;2.00;;
12042;SDS011;6082;49.306;12.862;2023-03-08T01:06:08;5.10;;;2.20;;
12042;SDS011;6082;49.306;12.862;2023-03-08T01:08:35;4.53;;;2.37;;
12042;SDS011;6082;49.306;12.862;2023-03-08T01:11:01;3.37;;;2.13;;
12042;SDS011;6082;49.306;12.862;2023-03-08T01:13:29;4.50;;;2.13;;
12042;SDS011;6082;49.306;12.862;2023-03-08T01:15:56;3.57;;;1.90;;
12042;SDS011;6082;49.306;12.862;2023-03-08T01:18:22;4.27;;;2.20;;
12042;SDS011;6082;49.306;12.862;2023-03-08T01:20:59;5.73;;;2.50;;
12042;SDS011;6082;49.306;12.862;2023-03-08T01:23:25;6.00;;;2.30;;
12042;SDS011;6082;49.306;12.862;2023-03-08T01:26:01;4.87;;;2.13;;
12042;SDS011;6082;49.306;12.862;2023-03-08T01:28:28;3.93;;;2.13;;
12042;SDS011;6082;49.306;12.862;2023-03-08T01:30:59;3.83;;;2.60;;
12042;SDS011;6082;49.306;12.862;2023-03-08T01:33:26;4.07;;;2.20;;
12042;SDS011;6082;49.306;12.862;2023-03-08T01:35:52;3.43;;;2.20;;
12042;SDS011;6082;49.306;12.862;2023-03-08T01:38:18;4.97;;;2.80;;
12042;SDS011;6082;49.306;12.862;2023-03-08T01:40:44;4.60;;;2.40;;
12042;SDS011;6082;49.306;12.862;2023-03-08T01:48:37;4.43;;;2.57;;
12042;SDS011;6082;49.306;12.862;2023-03-08T01:51:05;4.03;;;2.10;;
12042;SDS011;6082;49.306;12.862;2023-03-08T01:53:32;5.37;;;2.20;;
12042;SDS011;6082;49.306;12.862;2023-03-08T01:56:00;5.87;;;2.80;;
12042;SDS011;6082;49.306;12.862;2023-03-08T01:58:26;4.07;;;2.67;;
12042;SDS011;6082;49.306;12.862;2023-03-08T02:00:52;5.10;;;2.80;;
12042;SDS011;6082;49.306;12.862;2023-03-08T02:03:19;3.77;;;2.60;;
12042;SDS011;6082;49.306;12.862;2023-03-08T02:05:45;4.73;;;2.80;;
12042;SDS011;6082;49.306;12.862;2023-03-08T02:08:12;5.20;;;2.47;;
12042;SDS011;6082;49.306;12.862;2023-03-08T02:10:38;4.10;;;2.70;;
12042;SDS011;6082;49.306;12.862;2023-03-08T02:13:06;6.20;;;2.60;;
12042;SDS011;6082;49.306;12.862;2023-03-08T02:15:32;3.73;;;2.37;;
12042;SDS011;6082;49.306;12.862;2023-03-08T02:17:58;4.20;;;2.13;;
12042;SDS011;6082;49.306;12.862;2023-03-08T02:20:28;4.67;;;2.57;;
12042;SDS011;6082;49.306;12.862;2023-03-08T02:23:05;5.07;;;2.77;;
12042;SDS011;6082;49.306;12.862;2023-03-08T02:25:31;6.03;;;2.40;;
12042;SDS011;6082;49.306;12.862;2023-03-08T02:27:57;3.83;;;2.47;;
12042;SDS011;6082;49.306;12.862;2023-03-08T02:30:24;4.00;;;2.50;;
12042;SDS011;6082;49.306;12.862;2023-03-08T02:32:51;6.60;;;2.53;;
12042;SDS011;6082;49.306;12.862;2023-03-08T02:35:17;4.23;;;2.57;;
12042;SDS011;6082;49.306;12.862;2023-03-08T02:37:43;5.33;;;2.87;;
12042;SDS011;6082;49.306;12.862;2023-03-08T02:40:09;5.27;;;3.03;;
12042;SDS011;6082;49.306;12.862;2023-03-08T02:42:36;6.97;;;2.60;;
12042;SDS011;6082;49.306;12.862;2023-03-08T02:45:02;4.97;;;2.87;;
12042;SDS011;6082;49.306;12.862;2023-03-08T02:47:29;3.47;;;2.30;;
12042;SDS011;6082;49.306;12.862;2023-03-08T02:49:55;5.07;;;2.93;;
12042;SDS011;6082;49.306;12.862;2023-03-08T02:52:21;5.03;;;2.53;;
12042;SDS011;6082;49.306;12.862;2023-03-08T02:54:47;5.10;;;2.73;;
12042;SDS011;6082;49.306;12.862;2023-03-08T02:57:13;6.30;;;3.30;;
12042;SDS011;6082;49.306;12.862;2023-03-08T02:59:39;5.50;;;2.80;;
12042;SDS011;6082;49.306;12.862;2023-03-08T03:02:05;4.97;;;2.47;;
12042;SDS011;6082;49.306;12.862;2023-03-08T03:04:32;3.73;;;2.10;;
12042;SDS011;6082;49.306;12.862;2023-03-08T03:06:58;4.33;;;2.53;;
12042;SDS011;6082;49.306;12.862;2023-03-08T03:09:24;5.53;;;2.40;;
12042;SDS011;6082;49.306;12.862;2023-03-08T03:11:50;4.20;;;2.47;;
12042;SDS011;6082;49.306;12.862;2023-03-08T03:14:19;5.67;;;2.43;;
12042;SDS011;6082;49.306;12.862;2023-03-08T03:16:46;4.40;;;2.33;;
12042;SDS011;6082;49.306;12.862;2023-03-08T03:19:12;5.33;;;2.87;;
12042;SDS011;6082;49.306;12.862;2023-03-08T03:21:38;4.13;;;2.70;;
12042;SDS011;6082;49.306;12.862;2023-03-08T03:24:05;6.63;;;2.53;;
12042;SDS011;6082;49.306;12.862;2023-03-08T03:26:31;4.73;;;2.47;;
12042;SDS011;6082;49.306;12.862;2023-03-08T03:28:58;4.33;;;2.30;;
12042;SDS011;6082;49.306;12.862;2023-03-08T03:31:24;7.13;;;2.87;;
12042;SDS011;6082;49.306;12.862;2023-03-08T03:33:50;6.17;;;2.67;;
12042;SDS011;6082;49.306;12.862;2023-03-08T03:36:18;4.80;;;2.60;;
12042;SDS011;6082;49.306;12.862;2023-03-08T03:38:44;4.10;;;2.37;;
12042;SDS011;6082;49.306;12.862;2023-03-08T03:41:11;5.60;;;2.60;;
12042;SDS011;6082;49.306;12.862;2023-03-08T03:43:37;6.17;;;2.70;;
12042;SDS011;6082;49.306;12.862;2023-03-08T03:46:06;4.30;;;2.40;;
12042;SDS011;6082;49.306;12.862;2023-03-08T03:48:35;4.97;;;2.20;;
12042;SDS011;6082;49.306;12.862;2023-03-08T03:51:03;3.93;;;2.33;;
12042;SDS011;6082;49.306;12.862;2023-03-08T03:53:30;4.83;;;2.67;;
12042;SDS011;6082;49.306;12.862;2023-03-08T03:56:06;4.23;;;2.33;;
12042;SDS011;6082;49.306;12.862;2023-03-08T03:58:33;7.07;;;2.57;;
12042;SDS011;6082;49.306;12.862;2023-03-08T04:00:59;7.03;;;2.50;;
12042;SDS011;6082;49.306;12.862;2023-03-08T04:03:25;4.63;;;2.70;;
12042;SDS011;6082;49.306;12.862;2023-03-08T04:05:52;4.70;;;2.30;;
12042;SDS011;6082;49.306;12.862;2023-03-08T04:08:18;4.50;;;2.77;;
12042;SDS011;6082;49.306;12.862;2023-03-08T04:10:44;4.80;;;1.83;;
12042;SDS011;6082;49.306;12.862;2023-03-08T04:13:11;4.10;;;2.27;;
12042;SDS011;6082;49.306;12.862;2023-03-08T04:15:37;3.67;;;2.50;;
12042;SDS011;6082;49.306;12.862;2023-03-08T04:18:03;3.90;;;2.20;;
12042;SDS011;6082;49.306;12.862;2023-03-08T04:20:29;4.07;;;2.03;;
12042;SDS011;6082;49.306;12.862;2023-03-08T04:22:55;3.87;;;1.93;;
12042;SDS011;6082;49.306;12.862;2023-03-08T04:25:21;4.50;;;2.20;;
12042;SDS011;6082;49.306;12.862;2023-03-08T04:27:47;5.40;;;2.60;;
12042;SDS011;6082;49.306;12.862;2023-03-08T04:30:13;3.93;;;2.27;;
12042;SDS011;6082;49.306;12.862;2023-03-08T04:32:39;5.50;;;3.07;;
12042;SDS011;6082;49.306;12.862;2023-03-08T04:35:05;4.80;;;2.07;;
12042;SDS011;6082;49.306;12.862;2023-03-08T04:37:32;5.77;;;2.40;;
12042;SDS011;6082;49.306;12.862;2023-03-08T04:39:58;4.90;;;2.23;;
12042;SDS011;6082;49.306;12.862;2023-03-08T04:42:24;4.13;;;2.13;;
12042;SDS011;6082;49.306;12.862;2023-03-08T04:44:50;6.27;;;2.60;;
12042;SDS011;6082;49.306;12.862;2023-03-08T04:47:16;5.70;;;2.57;;
12042;SDS011;6082;49.306;12.862;2023-03-08T04:49:42;4.30;;;2.90;;
12042;SDS011;6082;49.306;12.862;2023-03-08T04:52:08;4.80;;;2.50;;
12042;SDS011;6082;49.306;12.862;2023-03-08T04:54:34;3.50;;;2.30;;
12042;SDS011;6082;49.306;12.862;2023-03-08T04:57:00;8.17;;;2.90;;
12042;SDS011;6082;49.306;12.862;2023-03-08T04:59:26;5.17;;;2.63;;
12042;SDS011;6082;49.306;12.862;2023-03-08T05:01:52;4.87;;;2.93;;
12042;SDS011;6082;49.306;12.862;2023-03-08T05:04:18;5.20;;;3.03;;
12042;SDS011;6082;49.306;12.862;2023-03-08T05:06:44;5.53;;;2.67;;
12042;SDS011;6082;49.306;12.862;2023-03-08T05:09:10;7.30;;;3.50;;
12042;SDS011;6082;49.306;12.862;2023-03-08T05:11:37;4.73;;;2.87;;
12042;SDS011;6082;49.306;12.862;2023-03-08T05:14:03;5.00;;;2.60;;
12042;SDS011;6082;49.306;12.862;2023-03-08T05:16:29;5.00;;;2.80;;
12042;SDS011;6082;49.306;12.862;2023-03-08T05:18:55;5.57;;;2.93;;
12042;SDS011;6082;49.306;12.862;2023-03-08T05:21:21;7.07;;;2.90;;
12042;SDS011;6082;49.306;12.862;2023-03-08T05:23:48;5.50;;;2.63;;
12042;SDS011;6082;49.306;12.862;2023-03-08T05:26:15;4.60;;;3.17;;
12042;SDS011;6082;49.306;12.862;2023-03-08T05:28:41;4.00;;;2.70;;
12042;SDS011;6082;49.306;12.862;2023-03-08T05:31:12;5.10;;;2.53;;
12042;SDS011;6082;49.306;12.862;2023-03-08T05:33:38;3.37;;;2.67;;
12042;SDS011;6082;49.306;12.862;2023-03-08T05:36:05;4.67;;;2.20;;
12042;SDS011;6082;49.306;12.862;2023-03-08T05:38:31;6.00;;;2.50;;
12042;SDS011;6082;49.306;12.862;2023-03-08T05:41:01;4.27;;;2.73;;
12042;SDS011;6082;49.306;12.862;2023-03-08T05:43:28;6.67;;;3.20;;
12042;SDS011;6082;49.306;12.862;2023-03-08T05:45:58;5.43;;;3.23;;
12042;SDS011;6082;49.306;12.862;2023-03-08T05:48:26;5.97;;;2.97;;
12042;SDS011;6082;49.306;12.862;2023-03-08T05:50:52;5.33;;;2.90;;
12042;SDS011;6082;49.306;12.862;2023-03-08T05:53:19;4.27;;;2.77;;
12042;SDS011;6082;49.306;12.862;2023-03-08T05:55:45;4.50;;;2.70;;
12042;SDS011;6082;49.306;12.862;2023-03-08T05:58:11;5.40;;;3.27;;
12042;SDS011;6082;49.306;12.862;2023-03-08T06:00:37;5.80;;;2.70;;
12042;SDS011;6082;49.306;12.862;2023-03-08T06:03:03;4.57;;;2.83;;
12042;SDS011;6082;49.306;12.862;2023-03-08T06:05:30;7.50;;;2.93;;
12042;SDS011;6082;49.306;12.862;2023-03-08T06:07:56;5.33;;;2.83;;
12042;SDS011;6082;49.306;12.862;2023-03-08T06:10:22;5.57;;;3.07;;
12042;SDS011;6082;49.306;12.862;2023-03-08T06:12:51;7.50;;;2.63;;
12042;SDS011;6082;49.306;12.862;2023-03-08T06:15:17;5.83;;;2.40;;
12042;SDS011;6082;49.306;12.862;2023-03-08T06:17:43;4.97;;;2.50;;
12042;SDS011;6082;49.306;12.862;2023-03-08T06:20:10;5.57;;;2.97;;
12042;SDS011;6082;49.306;12.862;2023-03-08T06:22:36;6.37;;;2.73;;
12042;SDS011;6082;49.306;12.862;2023-03-08T06:25:02;9.27;;;3.13;;
12042;SDS011;6082;49.306;12.862;2023-03-08T06:27:28;5.47;;;2.80;;
12042;SDS011;6082;49.306;12.862;2023-03-08T06:29:54;4.27;;;2.87;;
12042;SDS011;6082;49.306;12.862;2023-03-08T06:32:20;5.80;;;2.83;;
12042;SDS011;6082;49.306;12.862;2023-03-08T06:34:46;4.73;;;2.57;;
12042;SDS011;6082;49.306;12.862;2023-03-08T06:37:13;3.20;;;2.37;;
12042;SDS011;6082;49.306;12.862;2023-03-08T06:39:39;5.63;;;2.80;;
12042;SDS011;6082;49.306;12.862;2023-03-08T06:42:06;6.70;;;2.97;;
12042;SDS011;6082;49.306;12.862;2023-03-08T06:44:32;9.27;;;2.93;;
12042;SDS011;6082;49.306;12.862;2023-03-08T06:46:58;7.80;;;2.93;;
12042;SDS011;6082;49.306;12.862;2023-03-08T06:49:24;5.77;;;3.10;;
12042;SDS011;6082;49.306;12.862;2023-03-08T06:51:50;8.63;;;3.10;;
12042;SDS011;6082;49.306;12.862;2023-03-08T06:54:16;9.33;;;3.77;;
12042;SDS011;6082;49.306;12.862;2023-03-08T06:56:45;5.10;;;3.00;;
12042;SDS011;6082;49.306;12.862;2023-03-08T06:59:12;7.10;;;3.23;;
12042;SDS011;6082;49.306;12.862;2023-03-08T07:01:39;7.07;;;3.77;;
12042;SDS011;6082;49.306;12.862;2023-03-08T07:04:05;10.80;;;3.37;;
12042;SDS011;6082;49.306;12.862;2023-03-08T07:06:31;7.20;;;3.63;;
12042;SDS011;6082;49.306;12.862;2023-03-08T07:08:57;7.57;;;3.07;;
12042;SDS011;6082;49.306;12.862;2023-03-08T07:11:23;7.03;;;3.93;;
12042;SDS011;6082;49.306;12.862;2023-03-08T07:13:51;6.50;;;2.93;;
12042;SDS011;6082;49.306;12.862;2023-03-08T07:16:18;6.50;;;3.33;;
12042;SDS011;6082;49.306;12.862;2023-03-08T07:18:44;6.00;;;3.47;;
12042;SDS011;6082;49.306;12.862;2023-03-08T07:21:10;6.27;;;3.37;;
12042;SDS011;6082;49.306;12.862;2023-03-08T07:23:36;5.07;;;3.03;;
12042;SDS011;6082;49.306;12.862;2023-03-08T07:26:03;5.73;;;3.60;;
12042;SDS011;6082;49.306;12.862;2023-03-08T07:28:29;10.47;;;3.67;;
12042;SDS011;6082;49.306;12.862;2023-03-08T07:30:55;5.90;;;3.60;;
12042;SDS011;6082;49.306;12.862;2023-03-08T07:33:21;8.80;;;3.37;;
12042;SDS011;6082;49.306;12.862;2023-03-08T07:35:48;8.93;;;3.70;;
12042;SDS011;6082;49.306;12.862;2023-03-08T07:38:14;6.07;;;2.97;;
12042;SDS011;6082;49.306;12.862;2023-03-08T07:40:41;8.47;;;4.03;;
12042;SDS011;6082;49.306;12.862;2023-03-08T07:43:07;7.13;;;3.27;;
12042;SDS011;6082;49.306;12.862;2023-03-08T07:45:34;4.57;;;2.80;;
12042;SDS011;6082;49.306;12.862;2023-03-08T07:48:00;7.27;;;3.70;;
12042;SDS011;6082;49.306;12.862;2023-03-08T07:50:26;5.67;;;3.47;;
12042;SDS011;6082;49.306;12.862;2023-03-08T07:52:52;7.97;;;3.53;;
12042;SDS011;6082;49.306;12.862;2023-03-08T07:55:18;7.20;;;3.33;;
12042;SDS011;6082;49.306;12.862;2023-03-08T07:57:45;7.33;;;3.70;;
12042;SDS011;6082;49.306;12.862;2023-03-08T08:00:11;7.83;;;3.07;;
12042;SDS011;6082;49.306;12.862;2023-03-08T08:02:37;7.40;;;3.47;;
12042;SDS011;6082;49.306;12.862;2023-03-08T08:05:04;6.20;;;3.13;;
12042;SDS011;6082;49.306;12.862;2023-03-08T08:07:30;5.33;;;2.90;;
12042;SDS011;6082;49.306;12.862;2023-03-08T08:09:56;4.90;;;2.70;;
12042;SDS011;6082;49.306;12.862;2023-03-08T08:12:22;4.60;;;2.70;;
12042;SDS011;6082;49.306;12.862;2023-03-08T08:14:51;4.90;;;2.53;;
12042;SDS011;6082;49.306;12.862;2023-03-08T08:17:20;4.07;;;2.30;;
12042;SDS011;6082;49.306;12.862;2023-03-08T08:19:47;6.33;;;2.90;;
12042;SDS011;6082;49.306;12.862;2023-03-08T08:22:13;9.13;;;3.83;;
12042;SDS011;6082;49.306;12.862;2023-03-08T08:24:39;5.47;;;3.17;;
12042;SDS011;6082;49.306;12.862;2023-03-08T08:27:05;6.20;;;3.37;;
12042;SDS011;6082;49.306;12.862;2023-03-08T08:29:31;6.83;;;3.13;;
12042;SDS011;6082;49.306;12.862;2023-03-08T08:31:57;7.70;;;3.93;;
12042;SDS011;6082;49.306;12.862;2023-03-08T08:34:23;9.97;;;3.07;;
12042;SDS011;6082;49.306;12.862;2023-03-08T08:36:50;5.80;;;3.17;;
12042;SDS011;6082;49.306;12.862;2023-03-08T08:39:16;7.37;;;3.70;;
12042;SDS011;6082;49.306;12.862;2023-03-08T08:41:42;5.23;;;2.57;;
12042;SDS011;6082;49.306;12.862;2023-03-08T08:44:08;8.97;;;3.60;;
12042;SDS011;6082;49.306;12.862;2023-03-08T08:46:34;6.27;;;3.30;;
12042;SDS011;6082;49.306;12.862;2023-03-08T08:49:01;5.80;;;3.20;;
12042;SDS011;6082;49.306;12.862;2023-03-08T08:51:29;6.93;;;3.00;;
12042;SDS011;6082;49.306;12.862;2023-03-08T08:53:55;6.30;;;3.33;;
12042;SDS011;6082;49.306;12.862;2023-03-08T08:56:23;6.83;;;3.57;;
12042;SDS011;6082;49.306;12.862;2023-03-08T08:58:49;5.07;;;3.13;;
12042;SDS011;6082;49.306;12.862;2023-03-08T09:01:22;4.70;;;3.13;;
12042;SDS011;6082;49.306;12.862;2023-03-08T09:03:50;5.40;;;3.07;;
12042;SDS011;6082;49.306;12.862;2023-03-08T09:06:17;5.87;;;2.83;;
12042;SDS011;6082;49.306;12.862;2023-03-08T09:08:50;5.67;;;3.23;;
12042;SDS011;6082;49.306;12.862;2023-03-08T09:11:16;7.57;;;3.67;;
12042;SDS011;6082;49.306;12.862;2023-03-08T09:13:43;4.47;;;2.60;;
12042;SDS011;6082;49.306;12.862;2023-03-08T09:16:16;7.70;;;3.40;;
12042;SDS011;6082;49.306;12.862;2023-03-08T09:18:42;5.50;;;2.90;;
12042;SDS011;6082;49.306;12.862;2023-03-08T09:21:09;7.60;;;3.80;;
12042;SDS011;6082;49.306;12.862;2023-03-08T09:23:35;6.93;;;3.50;;
12042;SDS011;6082;49.306;12.862;2023-03-08T09:26:01;8.10;;;3.60;;
12042;SDS011;6082;49.306;12.862;2023-03-08T09:28:29;7.30;;;3.70;;
12042;SDS011;6082;49.306;12.862;2023-03-08T09:30:58;7.77;;;3.80;;
12042;SDS011;6082;49.306;12.862;2023-03-08T09:33:24;7.43;;;3.70;;
12042;SDS011;6082;49.306;12.862;2023-03-08T09:35:54;6.50;;;3.37;;
12042;SDS011;6082;49.306;12.862;2023-03-08T09:38:20;6.60;;;3.57;;
12042;SDS011;6082;49.306;12.862;2023-03-08T09:40:53;7.00;;;4.13;;
12042;SDS011;6082;49.306;12.862;2023-03-08T09:43:26;7.90;;;3.57;;
12042;SDS011;6082;49.306;12.862;2023-03-08T09:45:54;6.37;;;3.53;;
12042;SDS011;6082;49.306;12.862;2023-03-08T09:48:21;6.70;;;3.30;;
12042;SDS011;6082;49.306;12.862;2023-03-08T09:50:50;7.87;;;3.10;;
12042;SDS011;6082;49.306;12.862;2023-03-08T09:55:47;5.77;;;3.80;;
12042;SDS011;6082;49.306;12.862;2023-03-08T09:58:26;5.67;;;3.60;;
12042;SDS011;6082;49.306;12.862;2023-03-08T10:00:56;7.00;;;4.03;;
12042;SDS011;6082;49.306;12.862;2023-03-08T10:06:12;8.33;;;3.97;;
12042;SDS011;6082;49.306;12.862;2023-03-08T10:13:59;6.47;;;3.47;;
12042;SDS011;6082;49.306;12.862;2023-03-08T10:16:34;8.00;;;4.07;;
12042;SDS011;6082;49.306;12.862;2023-03-08T10:19:19;7.93;;;3.30;;
12042;SDS011;6082;49.306;12.862;2023-03-08T10:21:46;7.70;;;3.57;;
12042;SDS011;6082;49.306;12.862;2023-03-08T10:24:14;9.73;;;3.77;;
12042;SDS011;6082;49.306;12.862;2023-03-08T10:26:41;9.37;;;4.70;;
12042;SDS011;6082;49.306;12.862;2023-03-08T10:29:10;11.97;;;4.20;;
12042;SDS011;6082;49.306;12.862;2023-03-08T10:31:36;7.73;;;4.27;;
12042;SDS011;6082;49.306;12.862;2023-03-08T10:34:08;8.30;;;4.20;;
12042;SDS011;6082;49.306;12.862;2023-03-08T10:36:45;7.23;;;3.63;;
12042;SDS011;6082;49.306;12.862;2023-03-08T10:39:12;9.13;;;3.87;;
12042;SDS011;6082;49.306;12.862;2023-03-08T10:41:41;7.90;;;3.40;;
12042;SDS011;6082;49.306;12.862;2023-03-08T10:44:12;7.17;;;4.10;;
12042;SDS011;6082;49.306;12.862;2023-03-08T10:46:44;7.90;;;4.07;;
12042;SDS011;6082;49.306;12.862;2023-03-08T10:49:17;8.77;;;4.37;;
12042;SDS011;6082;49.306;12.862;2023-03-08T10:51:56;11.97;;;5.30;;
12042;SDS011;6082;49.306;12.862;2023-03-08T10:54:23;8.73;;;4.00;;
12042;SDS011;6082;49.306;12.862;2023-03-08T10:56:57;11.87;;;5.37;;
12042;SDS011;6082;49.306;12.862;2023-03-08T10:59:31;10.10;;;4.87;;
12042;SDS011;6082;49.306;12.862;2023-03-08T11:02:00;8.60;;;4.57;;
12042;SDS011;6082;49.306;12.862;2023-03-08T11:04:30;9.43;;;4.43;;
12042;SDS011;6082;49.306;12.862;2023-03-08T11:06:56;7.00;;;4.27;;
12042;SDS011;6082;49.306;12.862;2023-03-08T11:09:27;8.60;;;4.83;;
12042;SDS011;6082;49.306;12.862;2023-03-08T11:11:54;6.03;;;3.90;;
12042;SDS011;6082;49.306;12.862;2023-03-08T11:14:20;8.13;;;4.10;;
12042;SDS011;6082;49.306;12.862;2023-03-08T11:31:52;11.17;;;4.87;;
12042;SDS011;6082;49.306;12.862;2023-03-08T11:34:29;9.90;;;5.27;;
12042;SDS011;6082;49.306;12.862;2023-03-08T11:37:04;13.23;;;5.80;;
12042;SDS011;6082;49.306;12.862;2023-03-08T11:39:43;10.67;;;5.03;;
12042;SDS011;6082;49.306;12.862;2023-03-08T11:57:07;9.27;;;4.73;;
12042;SDS011;6082;49.306;12.862;2023-03-08T12:07:08;9.57;;;4.67;;
12042;SDS011;6082;49.306;12.862;2023-03-08T12:09:49;8.40;;;4.17;;
12042;SDS011;6082;49.306;12.862;2023-03-08T12:14:48;8.03;;;4.03;;
12042;SDS011;6082;49.306;12.862;2023-03-08T12:17:18;7.40;;;3.97;;
12042;SDS011;6082;49.306;12.862;2023-03-08T12:19:46;9.63;;;4.00;;
12042;SDS011;6082;49.306;12.862;2023-03-08T12:24:56;9.13;;;5.07;;
12042;SDS011;6082;49.306;12.862;2023-03-08T12:27:28;6.60;;;3.63;;
12042;SDS011;6082;49.306;12.862;2023-03-08T12:30:38;9.63;;;4.03;;
12042;SDS011;6082;49.306;12.862;2023-03-08T12:32:44;8.80;;;4.50;;
12042;SDS011;6082;49.306;12.862;2023-03-08T12:38:23;9.67;;;4.93;;
12042;SDS011;6082;49.306;12.862;2023-03-08T12:40:52;6.33;;;3.40;;
12042;SDS011;6082;49.306;12.862;2023-03-08T12:51:31;6.70;;;3.10;;
12042;SDS011;6082;49.306;12.862;2023-03-08T12:54:01;6.30;;;3.57;;
12042;SDS011;6082;49.306;12.862;2023-03-08T12:56:32;5.37;;;3.30;;
12042;SDS011;6082;49.306;12.862;2023-03-08T12:59:24;7.03;;;3.90;;
12042;SDS011;6082;49.306;12.862;2023-03-08T13:04:27;10.83;;;4.13;;
12042;SDS011;6082;49.306;12.862;2023-03-08T13:09:35;9.17;;;4.67;;
12042;SDS011;6082;49.306;12.862;2023-03-08T13:14:42;6.97;;;3.67;;
12042;SDS011;6082;49.306;12.862;2023-03-08T13:19:53;5.87;;;3.17;;
12042;SDS011;6082;49.306;12.862;2023-03-08T13:24:57;7.17;;;4.30;;
12042;SDS011;6082;49.306;12.862;2023-03-08T13:27:33;5.83;;;3.30;;
12042;SDS011;6082;49.306;12.862;2023-03-08T13:30:17;4.93;;;3.40;;
12042;SDS011;6082;49.306;12.862;2023-03-08T13:32:44;5.00;;;2.70;;
12042;SDS011;6082;49.306;12.862;2023-03-08T13:35:14;6.77;;;3.33;;
12042;SDS011;6082;49.306;12.862;2023-03-08T13:37:40;8.70;;;3.37;;
12042;SDS011;6082;49.306;12.862;2023-03-08T13:40:17;6.73;;;3.90;;
12042;SDS011;6082;49.306;12.862;2023-03-08T13:42:59;4.23;;;2.73;;
12042;SDS011;6082;49.306;12.862;2023-03-08T13:45:35;3.43;;;2.23;;
12042;SDS011;6082;49.306;12.862;2023-03-08T13:48:02;6.80;;;3.53;;
12042;SDS011;6082;49.306;12.862;2023-03-08T13:50:33;4.77;;;2.97;;
12042;SDS011;6082;49.306;12.862;2023-03-08T13:53:00;4.23;;;2.73;;
12042;SDS011;6082;49.306;12.862;2023-03-08T13:55:28;5.27;;;3.30;;
12042;SDS011;6082;49.306;12.862;2023-03-08T13:57:57;6.57;;;4.27;;
12042;SDS011;6082;49.306;12.862;2023-03-08T14:00:27;8.23;;;3.83;;
12042;SDS011;6082;49.306;12.862;2023-03-08T14:02:55;5.60;;;3.00;;
12042;SDS011;6082;49.306;12.862;2023-03-08T14:05:26;6.03;;;2.97;;
12042;SDS011;6082;49.306;12.862;2023-03-08T14:10:26;7.27;;;3.43;;
12042;SDS011;6082;49.306;12.862;2023-03-08T14:12:54;7.77;;;4.13;;
12042;SDS011;6082;49.306;12.862;2023-03-08T14:15:21;7.87;;;4.20;;
12042;SDS011;6082;49.306;12.862;2023-03-08T14:17:47;8.17;;;4.40;;
12042;SDS011;6082;49.306;12.862;2023-03-08T14:20:18;4.33;;;2.90;;
12042;SDS011;6082;49.306;12.862;2023-03-08T14:22:48;7.07;;;3.43;;
12042;SDS011;6082;49.306;12.862;2023-03-08T14:25:28;6.80;;;4.43;;
12042;SDS011;6082;49.306;12.862;2023-03-08T14:27:55;7.20;;;3.87;;
12042;SDS011;6082;49.306;12.862;2023-03-08T14:30:25;11.00;;;4.33;;
12042;SDS011;6082;49.306;12.862;2023-03-08T14:35:40;7.47;;;3.87;;
12042;SDS011;6082;49.306;12.862;2023-03-08T14:38:12;6.97;;;3.93;;
12042;SDS011;6082;49.306;12.862;2023-03-08T14:40:43;8.57;;;4.30;;
12042;SDS011;6082;49.306;12.862;2023-03-08T14:43:14;13.57;;;6.70;;
12042;SDS011;6082;49.306;12.862;2023-03-08T14:45:49;10.20;;;5.57;;
12042;SDS011;6082;49.306;12.862;2023-03-08T14:53:37;9.40;;;6.03;;
12042;SDS011;6082;49.306;12.862;2023-03-08T14:58:40;17.20;;;7.77;;
12042;SDS011;6082;49.306;12.862;2023-03-08T15:01:06;14.00;;;7.50;;
12042;SDS011;6082;49.306;12.862;2023-03-08T15:03:32;16.37;;;6.93;;
12042;SDS011;6082;49.306;12.862;2023-03-08T15:06:00;11.90;;;5.97;;
12042;SDS011;6082;49.306;12.862;2023-03-08T15:08:29;12.97;;;7.10;;
12042;SDS011;6082;49.306;12.862;2023-03-08T15:10:55;12.43;;;7.50;;
12042;SDS011;6082;49.306;12.862;2023-03-08T15:13:22;15.93;;;7.47;;
12042;SDS011;6082;49.306;12.862;2023-03-08T15:15:48;17.30;;;7.53;;
12042;SDS011;6082;49.306;12.862;2023-03-08T15:18:15;14.27;;;7.60;;
12042;SDS011;6082;49.306;12.862;2023-03-08T15:20:42;12.70;;;7.00;;
12042;SDS011;6082;49.306;12.862;2023-03-08T15:23:11;12.70;;;6.13;;
12042;SDS011;6082;49.306;12.862;2023-03-08T15:25:38;12.40;;;5.33;;
12042;SDS011;6082;49.306;12.862;2023-03-08T15:28:04;8.87;;;5.80;;
12042;SDS011;6082;49.306;12.862;2023-03-08T15:30:30;13.23;;;7.43;;
12042;SDS011;6082;49.306;12.862;2023-03-08T15:32:57;13.30;;;6.97;;
12042;SDS011;6082;49.306;12.862;2023-03-08T15:35:23;13.93;;;6.73;;
12042;SDS011;6082;49.306;12.862;2023-03-08T15:37:49;17.77;;;7.83;;
12042;SDS011;6082;49.306;12.862;2023-03-08T15:40:20;14.17;;;6.67;;
12042;SDS011;6082;49.306;12.862;2023-03-08T15:42:46;13.50;;;7.30;;
12042;SDS011;6082;49.306;12.862;2023-03-08T15:45:13;15.90;;;7.10;;
12042;SDS011;6082;49.306;12.862;2023-03-08T15:47:39;16.30;;;7.57;;
12042;SDS011;6082;49.306;12.862;2023-03-08T15:50:09;15.37;;;6.73;;
12042;SDS011;6082;49.306;12.862;2023-03-08T15:52:37;13.33;;;6.37;;
12042;SDS011;6082;49.306;12.862;2023-03-08T15:55:03;11.50;;;6.53;;
12042;SDS011;6082;49.306;12.862;2023-03-08T15:57:29;13.93;;;6.13;;
12042;SDS011;6082;49.306;12.862;2023-03-08T15:59:55;17.00;;;7.10;;
12042;SDS011;6082;49.306;12.862;2023-03-08T16:02:22;19.30;;;7.30;;
12042;SDS011;6082;49.306;12.862;2023-03-08T16:04:48;11.43;;;5.97;;
12042;SDS011;6082;49.306;12.862;2023-03-08T16:07:19;12.87;;;7.13;;
12042;SDS011;6082;49.306;12.862;2023-03-08T16:09:46;12.90;;;7.43;;
12042;SDS011;6082;49.306;12.862;2023-03-08T16:12:12;17.37;;;9.17;;
12042;SDS011;6082;49.306;12.862;2023-03-08T16:14:39;14.30;;;7.63;;
12042;SDS011;6082;49.306;12.862;2023-03-08T16:17:05;16.93;;;9.53;;
12042;SDS011;6082;49.306;12.862;2023-03-08T16:19:33;17.63;;;9.07;;
12042;SDS011;6082;49.306;12.862;2023-03-08T16:22:00;15.40;;;8.53;;
12042;SDS011;6082;49.306;12.862;2023-03-08T16:24:26;12.43;;;6.77;;